sensor_id;sensor_type;location;lat;lon;timestamp;temperature;humidity
8892;DHT22;4482;54.332;10.118;2023-08-20T16:15:48;23.20;99.90
8892;DHT22;4482;54.332;10.118;2023-08-20T16:18:16;22.80;99.90
8892;DHT22;4482;54.332;10.118;2023-08-20T16:20:42;22.80;99.90
8892;DHT22;4482;54.332;10.118;2023-08-20T16:23:08;22.80;99.90
8892;DHT22;4482;54.332;10.118;2023-08-20T16:25:35;22.70;99.90
8892;DHT22;4482;54.332;10.118;2023-08-20T16:28:04;22.70;99.90
8892;DHT22;4482;54.332;10.118;2023-08-20T16:30:31;22.70;99.90
8892;DHT22;4482;54.332;10.118;2023-08-20T16:33:00;22.80;99.90
8892;DHT22;4482;54.332;10.118;2023-08-20T16:35:27;22.80;99.90
8892;DHT22;4482;54.332;10.118;2023-08-20T16:37:55;22.70;99.90
8892;DHT22;4482;54.332;10.118;2023-08-20T16:40:22;22.70;99.90
8892;DHT22;4482;54.332;10.118;2023-08-20T16:42:48;22.60;99.90
8892;DHT22;4482;54.332;10.118;2023-08-20T16:45:15;22.50;99.90
8892;DHT22;4482;54.332;10.118;2023-08-20T16:47:42;22.50;99.90
8892;DHT22;4482;54.332;10.118;2023-08-20T16:50:10;22.50;99.90
8892;DHT22;4482;54.332;10.118;2023-08-20T16:52:37;22.40;99.90
8892;DHT22;4482;54.332;10.118;2023-08-20T16:55:04;22.50;99.90
8892;DHT22;4482;54.332;10.118;2023-08-20T16:57:31;22.50;99.90
8892;DHT22;4482;54.332;10.118;2023-08-20T16:59:58;22.60;99.90
8892;DHT22;4482;54.332;10.118;2023-08-20T17:02:24;22.70;99.90
8892;DHT22;4482;54.332;10.118;2023-08-20T17:04:51;22.70;99.90
8892;DHT22;4482;54.332;10.118;2023-08-20T17:07:20;22.70;99.90
8892;DHT22;4482;54.332;10.118;2023-08-20T17:09:47;22.60;99.90
8892;DHT22;4482;54.332;10.118;2023-08-20T17:12:14;22.60;99.90
8892;DHT22;4482;54.332;10.118;2023-08-20T17:14:40;22.60;99.90
8892;DHT22;4482;54.332;10.118;2023-08-20T17:17:07;22.50;99.90
8892;DHT22;4482;54.332;10.118;2023-08-20T17:19:34;22.50;99.90
8892;DHT22;4482;54.332;10.118;2023-08-20T17:22:00;22.40;99.90
8892;DHT22;4482;54.332;10.118;2023-08-20T17:24:29;22.30;99.90
8892;DHT22;4482;54.332;10.118;2023-08-20T17:26:55;22.30;99.90
8892;DHT22;4482;54.332;10.118;2023-08-20T17:29:22;22.30;99.90
8892;DHT22;4482;54.332;10.118;2023-08-20T17:31:49;22.20;99.90
8892;DHT22;4482;54.332;10.118;2023-08-20T17:34:15;22.20;99.90
8892;DHT22;4482;54.332;10.118;2023-08-20T17:36:42;22.20;99.90
8892;DHT22;4482;54.332;10.118;2023-08-20T17:39:09;22.10;99.90
8892;DHT22;4482;54.332;10.118;2023-08-20T17:41:37;22.10;99.90
8892;DHT22;4482;54.332;10.118;2023-08-20T17:44:03;22.10;99.90
8892;DHT22;4482;54.332;10.118;2023-08-20T17:46:42;22.00;99.90
8892;DHT22;4482;54.332;10.118;2023-08-20T17:49:09;21.90;99.90
8892;DHT22;4482;54.332;10.118;2023-08-20T17:51:36;21.90;99.90
8892;DHT22;4482;54.332;10.118;2023-08-20T17:54:03;21.90;99.90
8892;DHT22;4482;54.332;10.118;2023-08-20T17:56:30;21.80;99.90
8892;DHT22;4482;54.332;10.118;2023-08-20T17:58:58;21.80;99.90
8892;DHT22;4482;54.332;10.118;2023-08-20T18:01:25;21.70;99.90
8892;DHT22;4482;54.332;10.118;2023-08-20T18:03:52;21.70;99.90
8892;DHT22;4482;54.332;10.118;2023-08-20T18:06:25;21.60;99.90
8892;DHT22;4482;54.332;10.118;2023-08-20T18:08:54;21.50;99.90
8892;DHT22;4482;54.332;10.118;2023-08-20T18:11:21;21.50;99.90
8892;DHT22;4482;54.332;10.118;2023-08-20T18:13:48;21.50;99.90
8892;DHT22;4482;54.332;10.118;2023-08-20T18:16:16;21.50;99.90
8892;DHT22;4482;54.332;10.118;2023-08-20T18:18:42;21.40;99.90
8892;DHT22;4482;54.332;10.118;2023-08-20T18:21:09;21.30;99.90
8892;DHT22;4482;54.332;10.118;2023-08-20T18:23:35;21.20;99.90
8892;DHT22;4482;54.332;10.118;2023-08-20T18:26:02;21.20;99.90
8892;DHT22;4482;54.332;10.118;2023-08-20T18:28:29;21.10;99.90
8892;DHT22;4482;54.332;10.118;2023-08-20T18:30:58;21.00;99.90
8892;DHT22;4482;54.332;10.118;2023-08-20T18:33:29;21.00;99.90
8892;DHT22;4482;54.332;10.118;2023-08-20T18:35:56;20.90;99.90
8892;DHT22;4482;54.332;10.118;2023-08-20T18:38:35;20.90;99.90
8892;DHT22;4482;54.332;10.118;2023-08-20T18:41:05;20.80;99.90
8892;DHT22;4482;54.332;10.118;2023-08-20T18:43:34;20.70;99.90
8892;DHT22;4482;54.332;10.118;2023-08-20T18:46:01;20.70;99.90
8892;DHT22;4482;54.332;10.118;2023-08-20T18:48:30;20.60;99.90
8892;DHT22;4482;54.332;10.118;2023-08-20T18:50:57;20.60;99.90
8892;DHT22;4482;54.332;10.118;2023-08-20T18:53:24;20.50;99.90
8892;DHT22;4482;54.332;10.118;2023-08-20T18:55:50;20.50;99.90
8892;DHT22;4482;54.332;10.118;2023-08-20T18:58:17;20.40;99.90
8892;DHT22;4482;54.332;10.118;2023-08-20T19:00:43;20.40;99.90
8892;DHT22;4482;54.332;10.118;2023-08-20T19:03:10;20.30;99.90
8892;DHT22;4482;54.332;10.118;2023-08-20T19:05:39;20.30;99.90
8892;DHT22;4482;54.332;10.118;2023-08-20T19:08:05;20.30;99.90
8892;DHT22;4482;54.332;10.118;2023-08-20T19:10:32;20.20;99.90
8892;DHT22;4482;54.332;10.118;2023-08-20T19:12:59;20.20;99.90
8892;DHT22;4482;54.332;10.118;2023-08-20T19:15:25;20.10;99.90
8892;DHT22;4482;54.332;10.118;2023-08-20T19:17:52;20.10;99.90
8892;DHT22;4482;54.332;10.118;2023-08-20T19:20:19;20.10;99.90
8892;DHT22;4482;54.332;10.118;2023-08-20T19:22:47;20.20;99.90
8892;DHT22;4482;54.332;10.118;2023-08-20T19:25:13;20.20;99.90
8892;DHT22;4482;54.332;10.118;2023-08-20T19:27:40;20.10;99.90
8892;DHT22;4482;54.332;10.118;2023-08-20T19:30:07;20.00;99.90
8892;DHT22;4482;54.332;10.118;2023-08-20T19:32:34;20.00;99.90
8892;DHT22;4482;54.332;10.118;2023-08-20T19:35:01;19.90;99.90
8892;DHT22;4482;54.332;10.118;2023-08-20T19:37:28;19.90;99.90
8892;DHT22;4482;54.332;10.118;2023-08-20T19:39:56;19.90;99.90
8892;DHT22;4482;54.332;10.118;2023-08-20T19:42:23;19.80;99.90
8892;DHT22;4482;54.332;10.118;2023-08-20T19:44:50;19.80;99.90
8892;DHT22;4482;54.332;10.118;2023-08-20T19:47:16;19.80;99.90
8892;DHT22;4482;54.332;10.118;2023-08-20T19:49:43;19.70;99.90
8892;DHT22;4482;54.332;10.118;2023-08-20T19:52:10;19.70;99.90
8892;DHT22;4482;54.332;10.118;2023-08-20T19:54:36;19.70;99.90
8892;DHT22;4482;54.332;10.118;2023-08-20T19:57:04;19.60;99.90
8892;DHT22;4482;54.332;10.118;2023-08-20T19:59:31;19.60;99.90
8892;DHT22;4482;54.332;10.118;2023-08-20T20:01:58;19.50;99.90
8892;DHT22;4482;54.332;10.118;2023-08-20T20:04:24;19.50;99.90
8892;DHT22;4482;54.332;10.118;2023-08-20T20:06:52;19.50;99.90
8892;DHT22;4482;54.332;10.118;2023-08-20T20:09:18;19.40;99.90
8892;DHT22;4482;54.332;10.118;2023-08-20T20:11:47;19.30;99.90
8892;DHT22;4482;54.332;10.118;2023-08-20T20:14:15;19.30;99.90
8892;DHT22;4482;54.332;10.118;2023-08-20T20:16:43;19.30;99.90
8892;DHT22;4482;54.332;10.118;2023-08-20T20:19:09;19.30;99.90
8892;DHT22;4482;54.332;10.118;2023-08-20T20:21:36;19.20;99.90
8892;DHT22;4482;54.332;10.118;2023-08-20T20:24:04;19.20;99.90
8892;DHT22;4482;54.332;10.118;2023-08-20T20:26:31;19.10;99.90
8892;DHT22;4482;54.332;10.118;2023-08-20T20:28:58;19.10;99.90
8892;DHT22;4482;54.332;10.118;2023-08-20T20:31:26;19.00;99.90
8892;DHT22;4482;54.332;10.118;2023-08-20T20:33:52;19.00;99.90
8892;DHT22;4482;54.332;10.118;2023-08-20T20:36:19;18.90;99.90
8892;DHT22;4482;54.332;10.118;2023-08-20T20:38:45;18.90;99.90
8892;DHT22;4482;54.332;10.118;2023-08-20T20:41:12;18.90;99.90
8892;DHT22;4482;54.332;10.118;2023-08-20T20:43:39;18.90;99.90
8892;DHT22;4482;54.332;10.118;2023-08-20T20:46:05;18.90;99.90
8892;DHT22;4482;54.332;10.118;2023-08-20T20:48:33;18.80;99.90
8892;DHT22;4482;54.332;10.118;2023-08-20T20:51:00;18.80;99.90
8892;DHT22;4482;54.332;10.118;2023-08-20T20:53:27;18.80;99.90
8892;DHT22;4482;54.332;10.118;2023-08-20T20:55:53;18.80;99.90
8892;DHT22;4482;54.332;10.118;2023-08-20T20:58:20;18.80;99.90
8892;DHT22;4482;54.332;10.118;2023-08-20T21:00:46;18.80;99.90
8892;DHT22;4482;54.332;10.118;2023-08-20T21:03:13;18.70;99.90
8892;DHT22;4482;54.332;10.118;2023-08-20T21:05:41;18.70;99.90
8892;DHT22;4482;54.332;10.118;2023-08-20T21:08:08;18.80;99.90
8892;DHT22;4482;54.332;10.118;2023-08-20T21:10:35;18.80;99.90
8892;DHT22;4482;54.332;10.118;2023-08-20T21:13:02;18.80;99.90
8892;DHT22;4482;54.332;10.118;2023-08-20T21:15:30;18.70;99.90
8892;DHT22;4482;54.332;10.118;2023-08-20T21:17:57;18.70;99.90
8892;DHT22;4482;54.332;10.118;2023-08-20T21:20:24;18.70;99.90
8892;DHT22;4482;54.332;10.118;2023-08-20T21:22:52;18.70;99.90
8892;DHT22;4482;54.332;10.118;2023-08-20T21:25:19;18.70;99.90
8892;DHT22;4482;54.332;10.118;2023-08-20T21:27:46;18.70;99.90
8892;DHT22;4482;54.332;10.118;2023-08-20T21:30:13;18.70;99.90
8892;DHT22;4482;54.332;10.118;2023-08-20T21:32:40;18.60;99.90
8892;DHT22;4482;54.332;10.118;2023-08-20T21:35:06;18.60;99.90
8892;DHT22;4482;54.332;10.118;2023-08-20T21:37:33;18.60;99.90
8892;DHT22;4482;54.332;10.118;2023-08-20T21:40:01;18.60;99.90
8892;DHT22;4482;54.332;10.118;2023-08-20T21:42:28;18.70;99.90
8892;DHT22;4482;54.332;10.118;2023-08-20T21:44:54;18.70;99.90
8892;DHT22;4482;54.332;10.118;2023-08-20T21:47:21;18.70;99.90
8892;DHT22;4482;54.332;10.118;2023-08-20T21:49:49;18.60;99.90
8892;DHT22;4482;54.332;10.118;2023-08-20T21:52:15;18.60;99.90
8892;DHT22;4482;54.332;10.118;2023-08-20T21:54:43;18.60;99.90
8892;DHT22;4482;54.332;10.118;2023-08-20T21:57:16;18.60;99.90
8892;DHT22;4482;54.332;10.118;2023-08-20T21:59:43;18.60;99.90
8892;DHT22;4482;54.332;10.118;2023-08-20T22:02:10;18.60;99.90
8892;DHT22;4482;54.332;10.118;2023-08-20T22:04:36;18.50;99.90
8892;DHT22;4482;54.332;10.118;2023-08-20T22:07:03;18.50;99.90
8892;DHT22;4482;54.332;10.118;2023-08-20T22:09:30;18.50;99.90
8892;DHT22;4482;54.332;10.118;2023-08-20T22:11:57;18.50;99.90
8892;DHT22;4482;54.332;10.118;2023-08-20T22:14:25;18.50;99.90
8892;DHT22;4482;54.332;10.118;2023-08-20T22:16:51;18.50;99.90
8892;DHT22;4482;54.332;10.118;2023-08-20T22:19:18;18.40;99.90
8892;DHT22;4482;54.332;10.118;2023-08-20T22:21:45;18.40;99.90
8892;DHT22;4482;54.332;10.118;2023-08-20T22:24:12;18.40;99.90
8892;DHT22;4482;54.332;10.118;2023-08-20T22:26:44;18.40;99.90
8892;DHT22;4482;54.332;10.118;2023-08-20T22:29:11;18.30;99.90
8892;DHT22;4482;54.332;10.118;2023-08-20T22:31:39;18.30;99.90
8892;DHT22;4482;54.332;10.118;2023-08-20T22:34:06;18.30;99.90
8892;DHT22;4482;54.332;10.118;2023-08-20T22:36:32;18.30;99.90
8892;DHT22;4482;54.332;10.118;2023-08-20T22:38:59;18.20;99.90
8892;DHT22;4482;54.332;10.118;2023-08-20T22:41:26;18.10;99.90
8892;DHT22;4482;54.332;10.118;2023-08-20T22:43:53;18.10;99.90
8892;DHT22;4482;54.332;10.118;2023-08-20T22:46:19;18.00;99.90
8892;DHT22;4482;54.332;10.118;2023-08-20T22:48:47;18.00;99.90
8892;DHT22;4482;54.332;10.118;2023-08-20T22:51:14;18.00;99.90
8892;DHT22;4482;54.332;10.118;2023-08-20T22:53:40;18.00;99.90
8892;DHT22;4482;54.332;10.118;2023-08-20T22:56:07;17.90;99.90
8892;DHT22;4482;54.332;10.118;2023-08-20T22:58:34;17.90;99.90
8892;DHT22;4482;54.332;10.118;2023-08-20T23:01:00;17.90;99.90
8892;DHT22;4482;54.332;10.118;2023-08-20T23:03:27;17.90;99.90
8892;DHT22;4482;54.332;10.118;2023-08-20T23:05:55;17.90;99.90
8892;DHT22;4482;54.332;10.118;2023-08-20T23:08:21;17.80;99.90
8892;DHT22;4482;54.332;10.118;2023-08-20T23:10:48;17.80;99.90
8892;DHT22;4482;54.332;10.118;2023-08-20T23:13:15;17.80;99.90
8892;DHT22;4482;54.332;10.118;2023-08-20T23:15:41;17.80;99.90
8892;DHT22;4482;54.332;10.118;2023-08-20T23:18:08;17.80;99.90
8892;DHT22;4482;54.332;10.118;2023-08-20T23:20:34;17.90;99.90
8892;DHT22;4482;54.332;10.118;2023-08-20T23:23:03;17.90;99.90
8892;DHT22;4482;54.332;10.118;2023-08-20T23:25:29;17.90;99.90
8892;DHT22;4482;54.332;10.118;2023-08-20T23:27:56;18.00;99.90
8892;DHT22;4482;54.332;10.118;2023-08-20T23:30:22;18.00;99.90
8892;DHT22;4482;54.332;10.118;2023-08-20T23:32:49;17.90;99.90
8892;DHT22;4482;54.332;10.118;2023-08-20T23:35:16;17.90;99.90
8892;DHT22;4482;54.332;10.118;2023-08-20T23:37:43;17.80;99.90
8892;DHT22;4482;54.332;10.118;2023-08-20T23:40:11;17.70;99.90
8892;DHT22;4482;54.332;10.118;2023-08-20T23:42:38;17.80;99.90
8892;DHT22;4482;54.332;10.118;2023-08-20T23:45:05;17.70;99.90
8892;DHT22;4482;54.332;10.118;2023-08-20T23:47:32;17.60;99.90
8892;DHT22;4482;54.332;10.118;2023-08-20T23:49:58;17.60;99.90
8892;DHT22;4482;54.332;10.118;2023-08-20T23:52:25;17.60;99.90
8892;DHT22;4482;54.332;10.118;2023-08-20T23:54:52;17.50;99.90
8892;DHT22;4482;54.332;10.118;2023-08-20T23:57:20;17.50;99.90
8892;DHT22;4482;54.332;10.118;2023-08-20T23:59:46;17.50;99.90
